Florence, MT (59833)

6:20 PM MDT on August 21, 2014 (GMT -0600)
MPG Ranch - South Baldy Ridge | Change Station
CLOSE
Current Station
Personal Weather Station
Location: Florence, MT
Elevation: 4911 ft
Nearby Weather Stations

Elev 4911 ft 46.69 °N, 113.99 °W | Updated 14 minutes ago

Overcast
Overcast
62.0 °F
Feels Like 62.0 °F
N
14.0
Wind Variable Wind from NW
Gusts 23.0 mph

Today
High -- | Low -- °F
--% Chance of Precip.
Yesterday
High -- | Low -- °F
Precip. -- in
6:42 AM 8:35 PM
Waning Crescent, 11% visible
Pressure 29.96 in
Visibility 10.0 miles
Clouds Few 5000 ft
Mostly Cloudy 7500 ft
Overcast 9000 ft
Dew Point 47 °F
Humidity 58%
Rainfall 0.03 in
Snow Depth Not available.
UV 1 out of 12
Pollen 5.30 out of 12
Air Quality Not available.
Flu Activity Not available.
METAR KMSO 212353Z AUTO 35012G18KT 10SM -RA FEW050 BKN075 OVC090 21/10 A2999 RMK AO2 LTG DSNT SW RAB51 SLP143 P0000 60000 T02110100 10250 20206 55001

More Conditions Fewer Conditions

Pressure 29.96 in
Visibility 10.0 miles
Clouds Few 5000 ft
Mostly Cloudy 7500 ft
Overcast 9000 ft
Dew Point 47 °F
Humidity 58%
Rainfall 0.03 in
Snow Depth Not available.
UV 1 out of 12
Pollen 5.30 out of 12
Air Quality Not available.
Flu Activity Not available.
METAR KMSO 212353Z AUTO 35012G18KT 10SM -RA FEW050 BKN075 OVC090 21/10 A2999 RMK AO2 LTG DSNT SW RAB51 SLP143 P0000 60000 T02110100 10250 20206 55001

More Conditions Fewer Conditions

10-Day Weather Forecast

Almanac

Astronomy

Aug. 21, 2014 Rise Set
Actual Time 6:42 AM MDT 8:35 PM MDT
Civil Twilight 6:09 AM MDT 9:07 PM MDT
Nautical Twilight 5:29 AM MDT 9:47 PM MDT
Astronomical Twilight 4:46 AM MDT 10:30 PM MDT
Moon 3:09 AM MDT (8/21) 6:12 PM MDT (8/21)
Length of Visible Light 14h 58m
Length of Day
13h 53m
Tomorrow will be 3m 5s shorter.
Waning Crescent, 11% of the Moon is Illuminated
Today
Waning Crescent
Aug 25
New
Sep 2
First Quarter
Sep 8
Full
Sep 15
Last Quarter

Today's Extremes

State Highs State Lows

Community

WunderPhotos

Upload Photos

1,746,075 photos uploaded!

Nearby

Snow Depth

Station Depth Elevation
Daly Creek 0 in 5780 ft
Peterson Meadows 0 in 7200 ft
Kraft Creek 0 in 4750 ft
Barker Lakes 0 in 8250 ft
Basin Creek 0 in 7180 ft

Earthquake Activity

City Distance Mag. Time & Date
No recent earthquake activity has been reported nearby.
Minimum magnitude displayed is 2.5.

Coastal Water Temperatures

Place Temperature
No Stations Reporting

Nearby Weather Stations